Perry, Missouri
Current Conditions -  °F | °C
As of 2:15 AM on Monday 22 Dec 2014 (Local Time) from KHAE Reporting Station
Overcast Overcast  
Wind Chill: 35°   Ceiling: 4800
Heat Index: 41°   Visibility: 10mi
Dew Point: 32°   Wind: 9mph
Humidity: 70%   Direction: 140°SE
Pressure: 29.83"   Gusts: NA
Location:  39.43°N, 91.68°W
Report Text: KHAE 220815Z AUTO 14008KT 10SM OVC048 05/00 A2983 RMK AO2
Loading
Personal Weather Stations






























Interactive Weather Map New forecast layout! Learn more

10-Day Weather Forecast

Advertisements
Track Severe Weather on mobile